• Join FlightAware (Why Join?)
  • Login
  • US Flag GB Flag 
07:02 EST


 

Airport Tracker/Info


-or-


 

Live Flight TrackerFlight Track Log ✈ WBR2634 ✈ 14-Jun-2013 ✈ KBRL - KORD

Flight Track Log - Related Links

Times and Time Zones

All times are in EDT time to prevent confusion due to time zone crossing. See the WBR2634 flight status page for this flight to view local times or setup timezone preferences in your user account.

Time Position Orientation Groundspeed Altitude Reporting Facility
EDT Latitude Longitude Course Direction KTS MPH feet Rate Location/Type
17:56 40.8008 -91.0708 73° East 91 105 2,300  Level Chicago Center
17:57 40.8167 -91.0333 61° Northeast 115 132 3,100 720 Climbing Chicago Center
17:58 40.8502 -90.7996 57° Northeast  Level FlightAware Approximate
17:58 40.8297 -90.9922 67° East 118 136 3,800  Level Chicago Center
17:59 40.8667 -90.7501 90° East  Level FlightAware Approximate
17:59 40.8439 -90.9497 66° East 125 144 4,500  Level Chicago Center
18:00 40.8799 -90.6969 72° East  Level FlightAware Approximate
18:00 40.8594 -90.9042 66° East 134 154 5,100  Level Chicago Center
18:01 40.8926 -90.6435 73° East  Level FlightAware Approximate
18:01 40.8772 -90.8461 68° East 141 162 5,700  Level Chicago Center
18:02 40.8936 -90.7956 67° East 147 169 6,300 480 Climbing Chicago Center
18:03 40.9103 -90.7472 65° Northeast 145 167 6,800 480 Climbing Chicago Center
18:04 40.9294 -90.6975 63° Northeast 149 171 7,400 540 Climbing Chicago Center
18:05 40.9467 -90.6492 65° Northeast 148 170 8,000 480 Climbing Chicago Center
18:06 40.9628 -90.6003 66° East 145 167 8,500 480 Climbing Chicago Center
18:07 40.9831 -90.5425 65° Northeast 145 167 9,000 240 Climbing Chicago Center
18:08 41.0011 -90.4903 65° Northeast 154 177 9,100  Climbing Chicago Center
18:09 41.0194 -90.4339 67° East 164 189 9,100  Level Chicago Center
18:10 41.0400 -90.3775 64° Northeast 168 193 9,100  Level Chicago Center
18:11 41.0594 -90.3211 65° Northeast 168 193 9,100  Level Chicago Center
18:12 41.0814 -90.2664 62° Northeast 168 193 9,100  Level Chicago Center
18:13 41.1053 -90.2006 64° Northeast 166 191 9,100  Level Chicago Center
18:14 41.1239 -90.1458 66° East 163 188 9,100  Level Chicago Center
18:15 41.1422 -90.0894 67° East 166 191 9,100  Level Chicago Center
18:16 41.1600 -90.0356 66° East 162 186 9,100  Level Chicago Center
18:17 41.1789 -89.9786 66° East 165 190 9,100  Level Chicago Center
18:18 41.1981 -89.9219 66° East 167 192 9,100 -60 Level Chicago Center
18:19 41.2156 -89.8642 68° East 168 193 9,000 -60 Descending Chicago Center
18:20 41.2383 -89.7969 66° East 166 191 9,000  Level Chicago Center
18:21 41.2575 -89.7428 65° Northeast 164 189 9,000  Level Chicago Center
18:22 41.2772 -89.6875 65° Northeast 164 189 9,000  Level Chicago Center
18:23 41.2944 -89.6314 68° East 164 189 9,000  Level Chicago Center
18:24 41.3125 -89.5753 67° East 163 188 9,000  Level Chicago Center
18:26 41.3308 -89.5186 67° East 165 190 9,000  Level Chicago Center
18:27 41.3533 -89.4511 66° East 166 191 9,000  Level Chicago Center
18:28 41.3733 -89.3953 64° Northeast 166 191 9,000  Level Chicago Center
18:29 41.3908 -89.3378 68° East 167 192 9,000  Level Chicago Center
18:30 41.4086 -89.2797 68° East 168 193 9,000  Level Chicago Center
18:31 41.4275 -89.2233 66° East 167 192 9,000  Level Chicago Center
18:32 41.4439 -89.1647 70° East 167 192 9,000  Level Chicago Center
18:33 41.4653 -89.0978 67° East 165 190 9,100  Climbing Chicago Center
18:34 41.4831 -89.0408 67° East 167 192 9,000 -60 Descending Chicago Center
18:35 41.5003 -88.9828 68° East 169 194 9,000  Level Chicago Center
18:36 41.5183 -88.9272 67° East 164 189 9,000  Level Chicago Center
18:37 41.5392 -88.8719 63° Northeast 167 192 9,000 -180 Level Chicago Center
18:38 41.5625 -88.8061 65° Northeast 164 189 8,700 -420 Descending Chicago Center
18:39 41.5808 -88.7486 67° East 170 196 8,200 -300 Descending Chicago Center
18:40 41.5992 -88.6917 67° East 167 192 8,100 -120 Descending Chicago Center
18:41 41.6194 -88.6364 64° Northeast 166 191 8,000  Descending Chicago Center
18:42 41.6458 -88.5833 56° Northeast 170 196 8,100  Climbing Chicago Center
18:43 41.6797 -88.5406 43° Northeast 167 192 8,000 -60 Descending Chicago Center
18:44 41.6933 -88.4681 76° East 166 191 8,000  Level Chicago Center
18:45 41.7022 -88.4058 79° East 169 194 8,000  Level Chicago Center
18:46 41.7294 -88.3586 52° Northeast 166 191 8,000  Level Chicago Center
18:47 41.7714 -88.3758 343° North 159 183 8,000  Level Chicago Center
18:48 41.8144 -88.3800 356° North 156 180 8,000 -60 Level Chicago Center
18:49 41.8594 -88.3811 359° North 161 185 7,900 -420 Descending Chicago Center
18:50 41.9133 -88.3764 North 164 189 7,200 -660 Descending Chicago Center
18:51 41.9606 -88.3650 10° North 162 186 6,600 -780 Descending Chicago Center
18:52 41.9678 -88.3036 81° East 189 217 5,600 -780 Descending Chicago Center
18:53 41.9664 -88.2400 92° East 179 206 5,000 -660 Descending Chicago Center
18:54 41.9675 -88.1800 89° East 169 194 4,300 -780 Descending Chicago Center
18:55 41.9683 -88.1083 89° East 164 189 3,500 -780 Descending Chicago Center
18:56 41.9667 -88.0667 93° East 163 188 3,000 -780 Descending Chicago TRACON
18:57 41.9667 -88.0167 90° East 146 168 2,200 -900 Descending Chicago TRACON
18:58 41.9667 -87.9500 90° East 135 155 1,300 -900 Descending Chicago TRACON